createdAt,value
2022-07-30T00:00:52.225Z,13.90
2022-07-30T00:03:54.075Z,14.50
2022-07-30T00:06:55.915Z,14.10
2022-07-30T00:09:57.957Z,14.20
2022-07-30T00:12:59.840Z,15.30
2022-07-30T00:16:01.715Z,14.80
2022-07-30T00:19:03.689Z,15.40
2022-07-30T00:22:05.390Z,16.20
2022-07-30T00:25:07.590Z,16.70
2022-07-30T00:28:09.494Z,17.50
2022-07-30T00:31:11.471Z,17.70
2022-07-30T00:34:16.324Z,14.00
2022-07-30T00:37:17.977Z,16.20
2022-07-30T00:40:19.773Z,17.10
2022-07-30T00:43:21.649Z,16.60
2022-07-30T00:46:23.611Z,16.30
2022-07-30T00:49:26.256Z,18.10
2022-07-30T00:52:28.313Z,17.90
2022-07-30T00:55:31.255Z,16.40
2022-07-30T00:58:33.166Z,16.50
2022-07-30T01:01:35.468Z,17.00
2022-07-30T01:04:37.247Z,16.40
2022-07-30T01:07:39.194Z,16.60
2022-07-30T01:10:40.976Z,16.30
2022-07-30T01:13:45.898Z,15.80
2022-07-30T01:16:47.712Z,16.20
2022-07-30T01:19:56.194Z,15.80
2022-07-30T01:23:18.663Z,16.40
2022-07-30T01:26:21.070Z,18.20
2022-07-30T01:29:24.641Z,20.00
2022-07-30T01:32:27.595Z,23.70
2022-07-30T01:35:33.490Z,25.50
2022-07-30T01:38:36.754Z,27.20
2022-07-30T01:41:39.492Z,29.00
2022-07-30T01:44:42.070Z,30.60
2022-07-30T01:47:45.607Z,30.10
2022-07-30T01:50:51.668Z,30.90
2022-07-30T01:53:53.850Z,32.00
2022-07-30T01:56:58.097Z,33.00
2022-07-30T02:00:05.238Z,34.00
2022-07-30T02:03:10.679Z,34.50
2022-07-30T02:06:18.373Z,36.90
2022-07-30T02:09:23.385Z,37.90
2022-07-30T02:12:29.350Z,38.50
2022-07-30T02:15:46.431Z,39.00
2022-07-30T02:18:58.798Z,40.10
2022-07-30T02:22:08.520Z,39.10
2022-07-30T02:25:15.004Z,39.60
2022-07-30T02:28:19.034Z,37.30
2022-07-30T02:31:24.864Z,35.90
2022-07-30T02:34:27.669Z,34.70
2022-07-30T02:37:43.186Z,35.20
2022-07-30T02:40:48.533Z,36.60
2022-07-30T02:43:51.449Z,36.60
2022-07-30T02:46:53.858Z,36.30
2022-07-30T02:49:57.117Z,35.10
2022-07-30T02:53:01.101Z,32.60
2022-07-30T02:56:06.042Z,37.70
2022-07-30T02:59:08.753Z,40.80
2022-07-30T03:02:12.228Z,40.60
2022-07-30T03:05:16.642Z,41.50
2022-07-30T03:08:19.836Z,40.60
2022-07-30T03:11:22.513Z,39.00
2022-07-30T03:14:24.478Z,39.40
2022-07-30T03:17:28.870Z,37.30
2022-07-30T03:20:32.126Z,33.40
2022-07-30T03:23:36.168Z,38.00
2022-07-30T03:26:39.815Z,36.30
2022-07-30T03:29:41.796Z,35.40
2022-07-30T03:32:43.836Z,39.00
2022-07-30T03:35:49.087Z,38.10
2022-07-30T03:38:51.484Z,40.20
2022-07-30T03:41:54.846Z,40.70
2022-07-30T03:44:57.632Z,38.40
2022-07-30T03:47:59.411Z,34.30
2022-07-30T03:51:06.854Z,34.70
2022-07-30T03:54:13.568Z,37.20
2022-07-30T03:57:20.232Z,35.90
2022-07-30T04:00:23.931Z,37.80
2022-07-30T04:03:30.772Z,36.90
2022-07-30T04:06:33.237Z,36.90
2022-07-30T04:09:35.279Z,38.40
2022-07-30T04:12:37.293Z,36.30
2022-07-30T04:16:05.905Z,36.30
2022-07-30T04:19:17.325Z,36.60
2022-07-30T04:22:24.468Z,36.70
2022-07-30T04:25:27.258Z,35.30
2022-07-30T04:28:30.007Z,35.30
2022-07-30T04:31:40.690Z,34.70
2022-07-30T04:34:48.203Z,31.20
2022-07-30T04:37:50.006Z,31.90
2022-07-30T04:40:51.913Z,30.90
2022-07-30T04:43:53.731Z,31.00
2022-07-30T04:46:55.507Z,32.20
2022-07-30T04:49:57.718Z,34.10
2022-07-30T04:52:59.680Z,36.00
2022-07-30T04:56:03.069Z,33.60
2022-07-30T04:59:05.582Z,34.90
2022-07-30T05:02:08.068Z,35.10
2022-07-30T05:05:12.011Z,34.20
2022-07-30T05:08:14.240Z,34.60
2022-07-30T05:11:16.416Z,34.70
2022-07-30T05:14:18.172Z,34.60
2022-07-30T05:17:20.666Z,33.00
2022-07-30T05:20:22.443Z,33.40
2022-07-30T05:23:24.921Z,34.80
2022-07-30T05:26:27.475Z,32.10
2022-07-30T05:29:29.800Z,32.50
2022-07-30T05:32:32.170Z,33.60
2022-07-30T05:35:34.082Z,32.60
2022-07-30T05:38:36.421Z,29.60
2022-07-30T05:41:38.196Z,31.50
2022-07-30T05:44:39.975Z,29.40
2022-07-30T05:47:42.285Z,27.30
2022-07-30T05:50:45.683Z,26.20
2022-07-30T05:53:47.410Z,26.60
2022-07-30T05:56:49.727Z,26.70
2022-07-30T05:59:51.501Z,27.20
2022-07-30T06:02:53.215Z,28.40
2022-07-30T06:05:54.956Z,26.00
2022-07-30T06:08:56.655Z,25.60
2022-07-30T06:11:58.395Z,25.50
2022-07-30T06:15:00.184Z,22.70
2022-07-30T06:18:02.461Z,20.50
2022-07-30T06:21:04.458Z,22.70
2022-07-30T06:24:06.759Z,21.90
2022-07-30T06:27:08.720Z,22.40
2022-07-30T06:30:12.056Z,20.90
2022-07-30T06:33:13.798Z,19.70
2022-07-30T06:36:15.666Z,20.50
2022-07-30T06:39:56.141Z,20.20
2022-07-30T06:42:39.522Z,18.80
2022-07-30T06:45:43.615Z,19.10
2022-07-30T06:48:45.476Z,17.90
2022-07-30T06:51:47.248Z,19.00
2022-07-30T06:54:48.916Z,17.30
2022-07-30T06:57:50.653Z,16.50
2022-07-30T07:00:52.366Z,16.60
2022-07-30T07:03:54.288Z,15.20
2022-07-30T07:06:56.056Z,16.90
2022-07-30T07:09:57.900Z,14.40
2022-07-30T07:13:00.777Z,13.30
2022-07-30T07:16:02.795Z,13.90
2022-07-30T07:19:04.616Z,14.80
2022-07-30T07:22:06.353Z,13.50
2022-07-30T07:25:08.675Z,13.30
2022-07-30T07:28:11.944Z,12.00
2022-07-30T07:32:07.350Z,11.30
2022-07-30T07:34:36.599Z,10.60
2022-07-30T07:37:38.344Z,10.80
2022-07-30T07:40:40.855Z,10.00
2022-07-30T07:43:42.585Z,9.90
2022-07-30T07:46:44.395Z,10.00
2022-07-30T07:49:46.134Z,11.00
2022-07-30T07:52:47.922Z,9.50
2022-07-30T07:55:49.683Z,9.70
2022-07-30T07:58:56.677Z,8.40
2022-07-30T08:01:58.625Z,8.90
2022-07-30T08:05:06.428Z,9.10
2022-07-30T08:08:08.246Z,8.70
2022-07-30T08:11:10.095Z,8.40
2022-07-30T08:14:11.910Z,8.20
2022-07-30T08:17:14.223Z,7.60
2022-07-30T08:20:19.243Z,7.60
2022-07-30T08:23:22.582Z,8.50
2022-07-30T08:26:24.261Z,8.40
2022-07-30T08:29:26.041Z,7.90
2022-07-30T08:32:27.806Z,8.70
2022-07-30T08:35:30.958Z,8.00
2022-07-30T08:38:32.731Z,8.60
2022-07-30T08:41:36.558Z,8.20
2022-07-30T08:44:38.800Z,7.90
2022-07-30T08:47:41.366Z,8.10
2022-07-30T08:50:45.233Z,8.90
2022-07-30T08:53:47.305Z,8.10
2022-07-30T08:56:50.301Z,7.70
2022-07-30T09:00:00.080Z,8.40
2022-07-30T09:06:05.725Z,8.20
2022-07-30T09:09:07.618Z,8.00
2022-07-30T09:12:34.896Z,8.20
2022-07-30T09:15:38.982Z,7.70
2022-07-30T09:18:44.632Z,7.80
2022-07-30T09:22:00.835Z,7.00
2022-07-30T09:25:02.759Z,7.60
2022-07-30T09:28:15.843Z,8.00
2022-07-30T09:31:20.609Z,7.60
2022-07-30T09:34:29.795Z,7.40
2022-07-30T09:37:31.487Z,7.40
2022-07-30T09:40:33.984Z,7.40
2022-07-30T09:43:47.566Z,7.80
2022-07-30T09:46:52.026Z,7.40
2022-07-30T09:50:07.135Z,7.20
2022-07-30T09:53:11.877Z,6.70
2022-07-30T09:56:25.702Z,6.90
2022-07-30T09:59:34.996Z,6.80
2022-07-30T10:02:37.830Z,6.60
2022-07-30T10:05:51.724Z,6.90
2022-07-30T10:08:54.953Z,7.00
2022-07-30T10:12:00.207Z,6.90
2022-07-30T10:15:07.392Z,7.20
2022-07-30T10:18:09.229Z,6.90
2022-07-30T10:21:11.611Z,6.70
2022-07-30T10:24:16.742Z,7.00
2022-07-30T10:27:28.964Z,6.50
2022-07-30T10:30:34.107Z,6.70
2022-07-30T10:33:40.147Z,6.40
2022-07-30T10:36:45.053Z,6.50
2022-07-30T10:40:07.742Z,6.30
2022-07-30T10:43:23.567Z,6.80
2022-07-30T10:47:07.657Z,6.00
2022-07-30T10:50:22.334Z,6.60
2022-07-30T10:53:48.612Z,6.90
2022-07-30T10:57:04.243Z,6.20
2022-07-30T11:00:06.028Z,6.10
2022-07-30T11:03:41.080Z,6.30
2022-07-30T11:06:47.664Z,6.10
2022-07-30T11:10:05.280Z,5.30
2022-07-30T11:13:11.428Z,5.70
2022-07-30T11:16:13.303Z,5.50
2022-07-30T11:19:55.046Z,5.90
2022-07-30T11:22:44.589Z,5.30
2022-07-30T11:25:51.000Z,5.50
2022-07-30T11:28:53.979Z,5.40
2022-07-30T11:31:58.641Z,5.20
2022-07-30T11:35:24.501Z,5.10
2022-07-30T11:38:26.344Z,4.90
2022-07-30T11:41:28.058Z,5.30
2022-07-30T11:44:30.270Z,4.70
2022-07-30T11:47:32.273Z,5.50
2022-07-30T11:50:35.439Z,5.10
2022-07-30T11:53:37.303Z,5.00
2022-07-30T11:57:04.088Z,5.00
2022-07-30T12:00:07.158Z,5.90
2022-07-30T12:03:11.711Z,5.10
2022-07-30T12:06:19.942Z,6.10
2022-07-30T12:09:27.556Z,6.10
2022-07-30T12:12:29.653Z,5.80
2022-07-30T12:15:33.317Z,5.80
2022-07-30T12:18:35.431Z,6.10
2022-07-30T12:21:37.591Z,5.90
2022-07-30T12:24:39.321Z,7.40
2022-07-30T12:27:52.035Z,7.10
2022-07-30T12:30:55.441Z,6.00
2022-07-30T12:33:59.140Z,5.70
2022-07-30T12:37:10.263Z,5.80
2022-07-30T12:40:15.284Z,6.20
2022-07-30T12:43:17.623Z,6.20
2022-07-30T12:46:27.227Z,6.20
2022-07-30T12:49:36.795Z,5.80
2022-07-30T12:52:48.965Z,5.60
2022-07-30T12:55:50.638Z,6.10
2022-07-30T12:58:53.644Z,6.50
2022-07-30T13:01:57.505Z,6.30
2022-07-30T13:05:11.125Z,6.30
2022-07-30T13:08:14.013Z,5.80
2022-07-30T13:11:17.218Z,6.10
2022-07-30T13:14:19.494Z,5.90
2022-07-30T13:17:28.343Z,6.00
2022-07-30T13:20:30.504Z,6.00
2022-07-30T13:23:34.712Z,5.60
2022-07-30T13:26:36.799Z,6.30
2022-07-30T13:29:38.544Z,5.60
2022-07-30T13:32:40.342Z,5.50
2022-07-30T13:35:42.482Z,5.30
2022-07-30T13:38:45.605Z,5.20
2022-07-30T13:41:54.029Z,5.60
2022-07-30T13:44:55.786Z,5.30
2022-07-30T13:47:57.486Z,5.80
2022-07-30T13:51:03.764Z,5.40
2022-07-30T13:54:05.536Z,5.30
2022-07-30T13:57:07.375Z,5.30
2022-07-30T14:00:09.771Z,5.30
2022-07-30T14:03:11.965Z,5.20
2022-07-30T14:06:13.724Z,5.00
2022-07-30T14:09:15.629Z,5.60
2022-07-30T14:12:17.394Z,5.40
2022-07-30T14:15:19.081Z,7.00
2022-07-30T14:18:20.903Z,6.10
2022-07-30T14:21:22.669Z,6.00
2022-07-30T14:24:24.386Z,5.40
2022-07-30T14:27:26.550Z,5.70
2022-07-30T14:30:28.398Z,5.60
2022-07-30T14:33:30.112Z,7.10
2022-07-30T14:36:32.774Z,6.50
2022-07-30T14:39:34.617Z,7.00
2022-07-30T14:42:36.603Z,6.70
2022-07-30T14:45:39.301Z,6.60
2022-07-30T14:48:41.127Z,6.60
2022-07-30T14:51:43.002Z,6.60
2022-07-30T14:54:44.817Z,7.70
2022-07-30T14:57:48.056Z,7.20
2022-07-30T15:00:49.754Z,6.80
2022-07-30T15:03:51.794Z,7.10
2022-07-30T15:06:53.462Z,6.70
2022-07-30T15:09:55.387Z,7.10
2022-07-30T15:12:57.394Z,7.00
2022-07-30T15:15:59.813Z,7.00
2022-07-30T15:19:01.593Z,7.10
2022-07-30T15:22:04.303Z,7.00
2022-07-30T15:25:06.824Z,7.10
2022-07-30T15:28:08.900Z,7.20
2022-07-30T15:31:10.856Z,7.70
2022-07-30T15:34:12.883Z,8.70
2022-07-30T15:37:15.761Z,9.30
2022-07-30T15:40:17.635Z,10.30
2022-07-30T15:43:19.361Z,11.20
2022-07-30T15:46:21.123Z,11.00
2022-07-30T15:49:23.082Z,11.00
2022-07-30T15:52:24.862Z,11.50
2022-07-30T15:55:27.186Z,12.40
2022-07-30T15:58:29.059Z,12.90
2022-07-30T16:01:30.892Z,15.00
2022-07-30T16:04:33.200Z,15.10
2022-07-30T16:07:35.025Z,16.70
2022-07-30T16:10:37.927Z,15.30
2022-07-30T16:13:39.603Z,17.80
2022-07-30T16:16:41.656Z,16.60
2022-07-30T16:19:45.065Z,16.90
2022-07-30T16:22:47.548Z,17.00
2022-07-30T16:25:49.380Z,17.40
2022-07-30T16:28:51.156Z,18.30
2022-07-30T16:31:53.056Z,19.50
2022-07-30T16:34:54.952Z,18.50
2022-07-30T16:38:02.805Z,18.70
2022-07-30T16:41:04.720Z,18.30
2022-07-30T16:44:06.532Z,19.70
2022-07-30T16:47:13.616Z,19.00
2022-07-30T16:50:15.943Z,20.30
2022-07-30T16:53:18.502Z,21.10
2022-07-30T16:56:20.299Z,20.40
2022-07-30T16:59:22.798Z,20.20
2022-07-30T17:02:25.507Z,21.20
2022-07-30T17:05:27.400Z,19.50
2022-07-30T17:08:29.147Z,21.20
2022-07-30T17:11:47.273Z,22.50
2022-07-30T17:14:49.880Z,24.30
2022-07-30T17:17:51.959Z,24.40
2022-07-30T17:20:54.289Z,26.20
2022-07-30T17:23:56.442Z,26.10
2022-07-30T17:26:58.297Z,26.80
2022-07-30T17:30:01.523Z,28.10
2022-07-30T17:33:06.295Z,27.70
2022-07-30T17:36:08.822Z,28.50
2022-07-30T17:39:10.520Z,28.10
2022-07-30T17:42:32.296Z,27.80
2022-07-30T17:45:35.771Z,28.90
2022-07-30T17:48:37.504Z,28.50
2022-07-30T17:51:39.826Z,29.30
2022-07-30T17:54:42.749Z,31.20
2022-07-30T17:57:45.619Z,32.40
2022-07-30T18:00:49.042Z,33.40
2022-07-30T18:03:50.983Z,29.10
2022-07-30T18:06:52.844Z,29.70
2022-07-30T18:09:55.102Z,27.60
2022-07-30T18:12:57.556Z,29.30
2022-07-30T18:15:59.464Z,31.30
2022-07-30T18:19:01.384Z,32.20
2022-07-30T18:22:04.550Z,34.90
2022-07-30T18:25:07.615Z,36.90
2022-07-30T18:28:09.729Z,37.20
2022-07-30T18:31:13.514Z,38.30
2022-07-30T18:34:15.556Z,36.90
2022-07-30T18:37:17.392Z,39.10
2022-07-30T18:40:23.650Z,43.50
2022-07-30T18:43:29.569Z,43.50
2022-07-30T18:46:31.514Z,42.80
2022-07-30T18:49:37.833Z,41.80
2022-07-30T18:52:40.398Z,44.60
2022-07-30T18:55:43.640Z,42.60
2022-07-30T18:58:45.924Z,42.30
2022-07-30T19:01:47.803Z,39.90
2022-07-30T19:04:49.687Z,36.80
2022-07-30T19:07:57.316Z,32.70
2022-07-30T19:11:01.075Z,32.90
2022-07-30T19:14:02.831Z,33.80
2022-07-30T19:17:13.652Z,31.40
2022-07-30T19:20:16.212Z,25.60
2022-07-30T19:23:18.748Z,22.60
2022-07-30T19:26:20.579Z,22.30
2022-07-30T19:29:22.331Z,21.60
2022-07-30T19:32:24.881Z,22.40
2022-07-30T19:35:26.645Z,22.70
2022-07-30T19:38:28.938Z,22.00
2022-07-30T19:41:35.781Z,23.80
2022-07-30T19:44:41.179Z,22.00
2022-07-30T19:47:43.299Z,22.20
2022-07-30T19:50:46.520Z,23.70
2022-07-30T19:53:48.998Z,20.70
2022-07-30T19:56:50.965Z,19.40
2022-07-30T20:00:00.104Z,18.20
2022-07-30T20:03:06.047Z,16.40
2022-07-30T20:06:08.417Z,15.40
2022-07-30T20:09:17.069Z,16.50
2022-07-30T20:12:18.928Z,16.00
2022-07-30T20:15:20.700Z,16.80
2022-07-30T20:18:29.128Z,18.50
2022-07-30T20:21:56.511Z,20.60
2022-07-30T20:24:53.652Z,22.10
2022-07-30T20:27:55.583Z,21.90
2022-07-30T20:30:59.752Z,24.10
2022-07-30T20:34:02.262Z,28.00
2022-07-30T20:37:16.601Z,30.10
2022-07-30T20:40:26.637Z,29.30
2022-07-30T20:43:29.250Z,30.50
2022-07-30T20:46:32.134Z,30.70
2022-07-30T20:49:35.799Z,31.50
2022-07-30T20:52:40.473Z,33.00
2022-07-30T20:55:42.949Z,37.80
2022-07-30T20:58:47.307Z,40.70
2022-07-30T21:01:50.129Z,41.90
2022-07-30T21:04:56.703Z,44.30
2022-07-30T21:08:01.552Z,45.40
2022-07-30T21:11:04.026Z,47.20
2022-07-30T21:14:09.938Z,49.00
2022-07-30T21:17:12.347Z,46.50
2022-07-30T21:20:14.276Z,46.20
2022-07-30T21:23:27.186Z,45.00
2022-07-30T21:26:29.404Z,41.80
2022-07-30T21:29:31.807Z,38.50
2022-07-30T21:32:33.718Z,33.40
2022-07-30T21:35:36.750Z,27.00
2022-07-30T21:38:42.940Z,26.40
2022-07-30T21:41:44.630Z,27.30
2022-07-30T21:44:46.432Z,26.90
2022-07-30T21:47:48.364Z,28.10
2022-07-30T21:50:51.072Z,31.40
2022-07-30T21:53:52.739Z,31.40
2022-07-30T21:56:56.345Z,31.80
2022-07-30T21:59:59.921Z,30.90
2022-07-30T22:03:01.786Z,30.20
2022-07-30T22:06:17.794Z,27.90
2022-07-30T22:09:33.466Z,30.20
2022-07-30T22:12:35.941Z,29.50
2022-07-30T22:15:39.026Z,29.60
2022-07-30T22:18:41.281Z,31.10
2022-07-30T22:21:46.963Z,32.30
2022-07-30T22:24:49.499Z,32.30
2022-07-30T22:27:56.905Z,31.40
2022-07-30T22:30:59.103Z,28.50
2022-07-30T22:34:00.846Z,27.50
2022-07-30T22:37:02.696Z,26.80
2022-07-30T22:40:08.288Z,24.70
2022-07-30T22:43:12.779Z,24.70
2022-07-30T22:46:30.556Z,24.90
2022-07-30T22:49:46.389Z,23.00
2022-07-30T22:52:58.623Z,24.20
2022-07-30T22:56:20.310Z,22.70
2022-07-30T22:59:29.134Z,22.50
2022-07-30T23:02:48.802Z,22.70
2022-07-30T23:05:55.131Z,23.10
2022-07-30T23:08:58.958Z,25.20
2022-07-30T23:12:01.973Z,32.30
2022-07-30T23:15:05.932Z,34.80
2022-07-30T23:18:07.653Z,38.40
2022-07-30T23:21:10.070Z,36.50
2022-07-30T23:24:11.964Z,37.10
2022-07-30T23:27:19.699Z,37.60
2022-07-30T23:30:21.486Z,38.00
2022-07-30T23:33:23.228Z,36.60
2022-07-30T23:36:25.130Z,35.00
2022-07-30T23:39:26.952Z,36.30
2022-07-30T23:42:28.910Z,36.60
2022-07-30T23:45:30.723Z,38.30
2022-07-30T23:48:32.462Z,40.30
2022-07-30T23:51:34.213Z,41.80
2022-07-30T23:54:36.840Z,41.20
2022-07-30T23:57:39.490Z,39.50
